CheckWX is a tool to help pilots better visualize weather data.  It is not intended as a substitute for an official pre-flight weather briefing.

15:34:28 UTC

KHRO METAR
Boone County Airport
Harrison, Arkansas, USA
Current

41 mins ago

KHRO 051453Z AUTO 00000KT 10SM OVC034 11/08 A3011 RMK AO2 SLP195 T01110083 51006
Observed
Apr-5 @ 14:53 UTC
Visibility
Flight Rules
VFR
Cloud Levels
  • Overcast at 3,400' AGL
Temperature
11°C / 52°F
Dewpoint
C / 46°F
Humidity
82%
Altimeter
30.11" Hg
Pressure
1019.62 hPa
Previous

1 hour ago

KHRO 051418Z AUTO 00000KT 10SM FEW004 SCT020 OVC037 10/08 A3011 RMK AO2 T01000078
Observed
Apr-5 @ 14:18 UTC
Visibility
Flight Rules
VFR
Cloud Levels
  • Few at 400' AGL
  • Scattered at 2,000' AGL
  • Overcast at 3,700' AGL
Temperature
10°C / 50°F
Dewpoint
C / 46°F
Humidity
88%
Altimeter
30.11" Hg
Pressure
1019.62 hPa
Previous

2 hours ago

KHRO 051353Z AUTO 00000KT 10SM SCT004 BKN018 OVC038 09/07 A3011 RMK AO2 SLP196 T00940072
Observed
Apr-5 @ 13:53 UTC
Visibility
Flight Rules
MVFR
Cloud Levels
  • Scattered at 400' AGL
  • Broken at 1,800' AGL
  • Overcast at 3,800' AGL
Temperature
C / 48°F
Dewpoint
C / 45°F
Humidity
87%
Altimeter
30.11" Hg
Pressure
1019.62 hPa